Identifiez vous afin de poster une observation
 • Tableaux GEFS   

Tableaux GEFS de Températures 500hPa (°C)

Run GEFS du 26/09/2017 06Z - Choix du run : 00 - 06 - 12 - 18 Sauver tableau : Conserver cette image

Paramètres : [ Temp. 850hPa ] - [ Temp. 500hPa ] - [ Pression ] - [ Précip. ] - [ Temp. 2m ] - [ Z500 ] - [ CAPE ] -
[ Vent+Direction 10m ] - [ Vent 10m ] - [ Vent+Direction 850hPa ] - [ Vent 850hPa ] -
Tri des valeurs : [ Par scénario ] - [ Ascendant ] - [ Descendant ]

Localisation : 42.7N 23.3E

DateEch.
2017-09-26 06Z0-17.6-17.1-17.1-17.1-17-17-16.8-16.8-16.7-16.7-16.7-16.7-16.7-16.7-16.6-16.6-16.6-16.6-16.5-16.3-16.2-16.1
2017-09-26 09Z3-17.1-16.7-16.7-16.6-16.5-16.5-16.3-16.3-16.3-16.2-16.2-16.2-16.2-16.2-16.1-16-16-16-16-16-15.7-15.2
2017-09-26 12Z6-16.8-16.5-16.3-16.2-16.2-16.2-16.2-16.2-16.1-16.1-15.8-15.8-15.8-15.7-15.7-15.7-15.7-15.6-15.6-15.4-15.2-15.2
2017-09-26 15Z9-16.7-16.5-16.2-16.2-16.2-16.2-16.2-16.1-16.1-16-15.8-15.8-15.8-15.8-15.8-15.7-15.7-15.7-15.6-15.5-15.5-15.5
2017-09-26 18Z12-16.6-16.3-16.3-16.2-16.2-16.2-16.2-16.2-16.1-16-16-16-15.9-15.7-15.7-15.7-15.7-15.7-15.7-15.7-15.6-15.6
2017-09-26 21Z15-16.5-16.3-16.3-16.2-16.2-16.1-16.1-16.1-16.1-16.1-16-16-15.9-15.8-15.8-15.8-15.7-15.7-15.7-15.6-15.3-15.2
2017-09-27 00Z18-16.6-16.3-16.3-16.3-16.3-16.2-16.1-16.1-16-16-16-16-15.8-15.8-15.8-15.8-15.8-15.7-15.7-15.6-15.5-15.2
2017-09-27 03Z21-16.7-16.7-16.6-16.5-16.5-16.3-16.2-16.2-16.1-16.1-16.1-16-16-16-15.8-15.7-15.7-15.7-15.6-15.6-15.3-15.2
2017-09-27 06Z24-17.1-16.8-16.7-16.7-16.6-16.6-16.5-16.5-16.3-16.2-16.2-16.2-16.2-16.2-16.1-16-16-16-15.7-15.7-15.6-15.2
2017-09-27 09Z27-17.1-16.8-16.6-16.5-16.5-16.5-16.4-16.3-16.3-16.2-16.2-16.2-16.1-16-16-16-15.8-15.7-15.7-15.7-15.2-15.2
2017-09-27 12Z30-17.1-16.7-16.7-16.6-16.6-16.3-16.3-16.3-16.3-16.2-16.2-16.2-16.2-16.1-15.8-15.8-15.7-15.7-15.7-15.5-15.3-15.2
2017-09-27 15Z33-17-16.8-16.8-16.7-16.7-16.7-16.6-16.6-16.5-16.5-16.3-16.3-16.2-16.2-16.2-16.1-16.1-16-15.7-15.7-15.5-15.2
2017-09-27 18Z36-17.3-17.3-17.1-17-16.8-16.8-16.7-16.7-16.7-16.7-16.7-16.6-16.6-16.6-16.6-16.5-16.5-16.3-16.2-16.2-15.8-15.7
2017-09-27 21Z39-17.6-17.3-17.1-17.1-17.1-17-17-17-16.8-16.8-16.7-16.7-16.7-16.7-16.7-16.7-16.7-16.5-16.5-16.3-16.2-16.1
2017-09-28 00Z42-17.8-17.5-17.3-17.1-17.1-17.1-17.1-17.1-17.1-17-17-17-17-17-16.7-16.7-16.7-16.6-16.6-16.5-16.3-16.2
2017-09-28 03Z45-18.1-17.6-17.6-17.5-17.5-17.5-17.3-17.3-17.3-17.3-17.2-17.1-17.1-17.1-17.1-17-17-17-16.8-16.7-16.7-16.3
2017-09-28 06Z48-18.3-17.8-17.8-17.6-17.6-17.6-17.6-17.6-17.6-17.6-17.5-17.5-17.5-17.5-17.3-17.3-17.1-17.1-17.1-17-17-16.8
2017-09-28 09Z51-18.1-17.6-17.6-17.6-17.6-17.6-17.6-17.6-17.5-17.3-17.3-17.3-17.3-17.3-17.2-17.1-17.1-17.1-17.1-17-17-16.7
2017-09-28 12Z54-18.1-17.6-17.6-17.6-17.5-17.5-17.5-17.5-17.3-17.3-17.3-17.3-17.1-17.1-17.1-17.1-17.1-17.1-17-17-16.7-16.7
2017-09-28 15Z57-18-17.6-17.6-17.5-17.5-17.3-17.3-17.3-17.3-17.3-17.3-17.1-17.1-17.1-17.1-17.1-17.1-17.1-17-16.8-16.7-16.6
2017-09-28 18Z60-18.1-17.8-17.6-17.6-17.6-17.6-17.5-17.3-17.3-17.3-17.3-17.3-17.3-17.3-17.3-17.2-17.1-17.1-17.1-17-17-16.6
2017-09-28 21Z63-18.1-17.8-17.8-17.8-17.6-17.6-17.6-17.6-17.6-17.5-17.3-17.3-17.3-17.1-17.1-17.1-17.1-17.1-17-17-16.8-16.6
2017-09-29 00Z66-18.1-17.8-17.8-17.8-17.6-17.6-17.6-17.6-17.6-17.5-17.3-17.3-17.3-17.3-17.1-17.1-17.1-17.1-17.1-17-16.7-16.6
2017-09-29 03Z69-18.3-18.1-18.1-18.1-18-17.8-17.8-17.8-17.8-17.6-17.6-17.6-17.6-17.5-17.3-17.3-17.3-17.3-17.3-17.3-17.1-16.8
2017-09-29 06Z72-18.3-18.3-18.1-18.1-18-18-17.8-17.8-17.8-17.8-17.8-17.6-17.6-17.6-17.6-17.3-17.3-17.3-17.3-17.1-17.1-16.8
2017-09-29 09Z75-18.3-18.1-18-17.8-17.8-17.6-17.6-17.6-17.6-17.6-17.5-17.5-17.5-17.5-17.1-17.1-17.1-17.1-17.1-17.1-17-16.7
2017-09-29 12Z78-18.1-18-17.8-17.6-17.6-17.6-17.6-17.5-17.5-17.5-17.5-17.4-17.3-17.3-17.3-17.1-17.1-17.1-17.1-17-16.8-16.8
2017-09-29 15Z81-18.3-18-18-17.8-17.8-17.6-17.6-17.6-17.6-17.6-17.5-17.5-17.5-17.3-17.3-17.3-17.3-17.1-17.1-17.1-16.8-16.7
2017-09-29 18Z84-18.5-18.1-18.1-18.1-18-17.8-17.8-17.7-17.6-17.6-17.6-17.6-17.6-17.6-17.6-17.3-17.3-17.3-17.1-17.1-17-16.7
2017-09-29 21Z87-18.3-18.1-18.1-18.1-18.1-18-17.8-17.8-17.8-17.7-17.6-17.6-17.6-17.5-17.3-17.3-17.3-17.3-17.3-17.3-17-16.6
2017-09-30 00Z90-18.3-18.3-18.1-18.1-18.1-18-18-17.9-17.8-17.8-17.8-17.8-17.8-17.6-17.6-17.6-17.6-17.3-17.3-17.3-17.3-16.6
2017-09-30 03Z93-18.6-18.6-18.6-18.5-18.3-18.3-18.3-18.3-18.2-18.1-18.1-18.1-18.1-18-17.8-17.8-17.8-17.6-17.6-17.6-17.5-16.7
2017-09-30 06Z96-18.8-18.8-18.6-18.6-18.6-18.3-18.3-18.3-18.3-18.3-18.3-18.3-18.1-18.1-18.1-17.8-17.8-17.6-17.6-17.6-17.5-16.3
2017-09-30 09Z99-19-18.8-18.6-18.6-18.6-18.5-18.3-18.3-18.3-18.3-18.1-18-18-17.9-17.8-17.8-17.6-17.6-17.6-17.3-17.1-16.2
2017-09-30 12Z102-19-19-18.8-18.6-18.6-18.6-18.6-18.5-18.3-18.3-18-18-18-18-18-17.6-17.5-17.5-17.3-17.3-17.1-16.6
2017-09-30 15Z105-19.3-19.1-19-18.8-18.8-18.8-18.8-18.6-18.1-18.1-18.1-18.1-18.1-18-17.8-17.6-17.3-17.3-17.2-17.1-17.1-17
2017-09-30 18Z108-19.5-19.5-19.3-19.3-19.1-18.8-18.8-18.8-18.3-18.3-18.3-18.2-17.8-17.8-17.8-17.6-17.3-17.3-17.3-17.1-17.1-17
2017-09-30 21Z111-19.6-19.5-19.3-19.3-19.3-19.1-19.1-18.8-18.6-18.6-18.3-18.1-18-18-17.8-17.8-17.6-17.6-17.6-17.3-17-16.8
2017-10-01 00Z114-19.8-19.6-19.5-19.3-19.3-19.1-19-19-19-18.8-18.8-18.6-18.2-18.1-18.1-18.1-18.1-18-17.8-17.6-17.3-17
2017-10-01 03Z117-20-19.8-19.8-19.8-19.6-19.5-19.3-19.3-19.1-19.1-18.8-18.6-18.6-18.5-18.5-18.3-18.1-18.1-18-17.8-17.6-17.1
2017-10-01 06Z120-21-20.3-20.3-20.1-19.8-19.6-19.3-19.3-19.3-19.3-19.2-19.1-19.1-18.8-18.6-18.6-18.6-18.5-18.3-18.3-18.1-17.3
2017-10-01 09Z123-22.3-20.5-20.5-20.1-19.8-19.8-19.7-19.5-19.3-19.3-19.1-19.1-19-18.8-18.8-18.8-18.6-18.6-18.3-18.1-18.1-17.6
2017-10-01 12Z126-24.1-20.6-20.1-20.1-20.1-19.8-19.6-19.5-19.1-19.1-19-19-18.8-18.7-18.6-18.6-18.6-18.1-18-17.8-17.8-17.8
2017-10-01 15Z129-23.5-21-20.3-20.1-20.1-20-20-19.3-19.1-19.1-19.1-18.8-18.8-18.6-18.5-18.1-18-17.8-17.8-17.6-17.5-17.3
2017-10-01 18Z132-21.6-20.7-20.6-20.3-20-19.6-19.5-19.5-19.3-19.3-19.1-18.6-18.6-18.5-18.3-18.1-18.1-17.8-17.3-17.1-17-16.7
2017-10-01 21Z135-22-20.8-20.6-19.8-19.8-19.6-19.6-19.6-19.5-19.5-19.3-19-18.3-18.3-18.3-18.3-18.1-17.6-17.1-16.7-16.6-16.2
2017-10-02 00Z138-22.1-21-20.9-20.8-20.5-20.3-20.1-19.6-19.6-19.5-19.3-19.3-18.6-18.3-18.1-18.1-18-17.6-17-16.6-16.2-16.1
2017-10-02 03Z141-22.5-22.3-22.1-21.5-21-20.8-20.8-19.8-19.5-19.3-19.3-19.1-18.8-18-18-17.6-17.6-17.5-16.7-16.6-16-15.7
2017-10-02 06Z144-22.8-22.3-22.3-21.6-21.1-20.8-20.8-20-19.3-19.1-19-19-18.8-18.1-17.8-17.8-17.5-17.1-17.1-16.8-16.2-15.8
2017-10-02 09Z147-22.1-21.9-21.5-21.5-21-20.9-20.6-20-18.8-18.8-18.6-18.6-18.5-18.1-18-17.3-17.3-17.1-16.8-16.6-16.2-15.7
2017-10-02 12Z150-22.8-21.3-21-20.8-20.6-20.1-20.1-20-18.8-18.3-18.3-18.1-17.8-17.5-17.5-17.1-17.1-16.8-16.5-16.3-15.6-15.3
2017-10-02 15Z153-22.7-21.5-20.8-20.3-20.1-20-20-18.8-18.6-18.1-18.1-17.6-17.1-16.8-16.8-16.7-16.6-16.3-16.3-15.8-15.7-14.2
2017-10-02 18Z156-23.4-21.6-20.3-20-19.8-19.6-19.3-18.3-18.3-18.1-18-17.5-17.1-16.7-16.6-16.3-16.2-16.2-15.7-15.6-15.2-13.7
2017-10-02 21Z159-24-21.8-20.5-19.8-19.8-19.5-18.6-18.3-18.3-18-17.5-17.3-17.3-16.8-16.8-16.5-16.3-16.2-16.1-15.2-15-13.5
2017-10-03 00Z162-25-21.8-20.1-19.6-19.5-18.8-18.8-18.3-17.8-17.8-17.3-17.1-16.7-16.5-16.5-16.3-16.2-16.2-15.7-15-14.7-12.7
2017-10-03 03Z165-24.2-21.8-19.6-19.1-18.8-18.8-18.1-17.6-17.3-17.3-17.1-16.7-16.6-16.6-16.5-16.2-16.1-15.7-15.5-15-14.7-12.8
2017-10-03 06Z168-23-21.8-18.8-18.8-18.5-18.3-17.6-17.3-17.1-16.8-16.7-16.7-16.3-16.3-16.2-16.2-15.7-15.2-15.2-14.6-14.6-13.6
2017-10-03 09Z171-21.9-20.8-19-18.1-18-17.6-17.5-17.5-17.3-17-16.7-16.6-16.6-16.5-16.2-16.2-15.7-15.5-14.7-14.5-14.5-14.1
2017-10-03 12Z174-20.7-19.8-19-17.8-17.3-17.3-17.1-17.1-17-16.8-16.2-16.2-16.1-16.1-15.8-15.7-15.5-15.2-14.2-14.2-13.8-13.2
2017-10-03 15Z177-20-18.6-18.6-18.3-17-16.8-16.7-16.7-16.6-16.3-16.1-16.1-16.1-15.8-15.3-15.2-15.1-14.8-14-13.2-13.1-12.7
2017-10-03 18Z180-19-18.3-18.3-18.1-16.7-16.6-16.5-16.3-16.3-16.2-16.1-16-15.7-15.5-15.3-14.7-14.6-13.8-13.5-13-12.7-12.3
2017-10-03 21Z183-18.5-17.8-17.8-17.7-17.3-16.8-16.5-16.2-16.1-16.1-16.1-16-16-15.8-15.2-14.7-14-13.7-13.6-12.8-12.7-12.6
2017-10-04 00Z186-18-17.8-17.5-17.5-17.1-16.7-16.7-16.5-16.3-16.2-15.8-15.5-15.2-15.1-15.1-15.1-14.2-13.7-13.6-13.2-12.8-12.8
2017-10-04 03Z189-18.1-17.8-17.5-17.3-17.3-16.8-16.8-16.7-16.6-16.1-15.8-15.6-15.2-14.7-14.6-14.5-14.5-14.1-13.6-13.5-13.5-13.2
2017-10-04 06Z192-19.1-17.6-17.6-17.3-17.3-17-16.7-16.7-16.3-16.3-16.2-15.8-15.5-15-14.7-14.7-14.3-14.3-14.2-13.6-13.2-12.8
2017-10-04 12Z198-18.1-17.6-17.6-17.5-17.5-17-16.7-16.3-16.2-15.7-15.2-15.2-15.2-14.7-14.7-14.7-14.7-14.2-14-12.5-12.5-11.6
2017-10-04 18Z204-20-19.8-18.2-17.6-17.6-17.1-17.1-17-16.5-16.5-16.2-15.7-15.6-15.2-14.8-14.7-14.6-13.8-13.7-13.2-12.8-10.6
2017-10-05 00Z210-21.6-19.5-19.3-18.5-17.8-17.5-17.1-17-16.8-16.7-16.3-16.2-15.7-15.5-15.3-15.2-15.1-15-14.2-14.2-13.2-9.7
2017-10-05 06Z216-21.5-20.6-20.4-19.8-19.8-18.6-18.1-17.6-16.8-16.7-16.5-15.7-15.6-15.5-15.1-14.7-14.6-13.8-13.7-13.6-12.5-10.5
2017-10-05 12Z222-22-21.3-21.1-20.3-19.1-18.6-17.6-17.1-17-17-17-16.2-15.5-15.1-15.1-15.1-15.1-14.7-13.2-12.7-12.2-10.2
2017-10-05 18Z228-24.2-21.3-21-19.8-19.5-18.6-18.3-18.3-18.1-17.1-16.6-16.1-15.2-15.2-15.2-14.8-14.5-14.5-12.5-11.7-10.8-8.3
2017-10-06 00Z234-25.5-21.8-20-19.8-18.5-18.3-17.6-16.7-16.6-16.5-16.1-15.6-15.3-15.1-14.7-14.7-14.6-13.7-12.1-11.7-10.8-10.2
2017-10-06 06Z240-26-21.8-21-18.8-18-16.8-16.7-16.7-16.5-16.1-16-15.3-14.7-14.7-14.3-13.1-13-12.5-12.3-12.1-12-10.1
2017-10-06 12Z246-22.8-21.6-18.3-17.8-17-16.8-16.5-16.2-15.7-15.7-15.5-15.3-14.1-14.1-13.7-13.2-12.5-12.1-12-11-9.7
2017-10-06 18Z252-24-22.8-22.3-20.6-18.5-17.6-17-16.7-15.7-15.3-15.2-14.7-14.5-14.5-14.1-12.2-11.5-11.5-11.1-10.8-10.7-10.2
2017-10-07 00Z258-22.6-20.6-19.3-19-18.3-17.1-16.8-16.1-15.5-14.8-14.8-14.7-14-13.6-13-11.8-11.7-11.3-11.3-10.8-10.3
2017-10-07 06Z264-21.3-20.6-19.3-18.3-17.6-17.3-17.1-16.6-16.5-16.1-15.2-14.6-14.6-13.3-13.3-13.3-13.2-13.1-12.6-11.8-10.8-10.7
2017-10-07 12Z270-19.8-19.3-19.3-17.6-17.3-17.3-17.1-16.5-15.5-15.1-14.7-14-13.6-13.5-13.2-12.7-12.7-12.3-11.2-11.2-10.5
2017-10-07 18Z276-21-19.8-19.3-17.6-17.4-16.7-16.6-16-16-15.6-15.5-15.1-14.7-14.5-13.7-12.7-12.6-12-11.7-11.2-10.7-9.8
2017-10-08 00Z282-20.8-19.8-19.8-19.6-17.5-17.1-17-17-16.7-15.8-15.2-15-14.3-14.2-13.3-13.2-12.7-11.7-11.5-10.7-9.5
2017-10-08 06Z288-21-20.8-20.6-20.3-20.3-19.3-17.5-17.1-17.1-16.1-15.7-15.7-15.2-14.6-14.1-13.7-13.7-12.7-12.3-11.6-10.5-10.3
2017-10-08 12Z294-22.5-21.1-20-19.1-19-17-15.7-15.6-15.6-15.5-15.2-14.8-14.8-14.7-14.2-13.3-12.7-12.6-12.3-11.3-10.1
2017-10-08 18Z300-23.6-20.2-19.8-19.6-19.3-17.1-16.7-16.6-16.1-15.7-15.2-15.2-14.8-14.6-14.5-14.5-13.6-13.1-13.1-13-12.8-10.7
2017-10-09 00Z306-24.6-19.3-19.1-17.8-17.3-17.3-17.1-16.7-16.5-16.2-16.1-15.6-15.6-15.1-14.1-14.1-14-13.7-12.7-12.2-10.7
2017-10-09 06Z312-24.1-20.7-19.6-19-18.3-17.6-16.8-16.2-16.2-16.1-15.8-15.8-15.7-15.3-15.2-15.1-13.8-13.8-13.6-13.3-12.7-8.8
2017-10-09 12Z318-23.1-20.1-17.6-17.6-17.5-16.3-16.2-15.7-15.5-15.5-15.3-15.3-15.2-15-14.7-14-13.8-13.2-13.2-12.6-8.7
2017-10-09 18Z324-21.6-20.6-17.6-17.3-17.1-16.8-16.7-16.7-16.7-15.8-15.7-15.5-15.2-15-14.7-14.2-14-13.6-13.5-13.1-12.7-9.6
2017-10-10 00Z330-20.3-19-18.1-17.8-17.3-16.8-16.5-16.2-16.2-16.2-16.1-15.2-14.8-14.5-14.2-14.1-13.5-13.5-13-12.8-11
2017-10-10 06Z336-21.5-20.5-18.3-18.3-18-17.8-17.5-17-16.7-16.6-16.2-16.1-16.1-15.7-15.2-14.7-14.7-14.2-13.1-12.8-12.7-12.2
2017-10-10 12Z342-25.5-23.6-20.6-19.8-19.5-18.1-17.6-17.3-16.6-16.3-16-15.8-15.2-14.7-14.6-13.8-13.7-13.5-13.1-13-12.3
2017-10-10 18Z348-30-23.6-22.1-21.3-20-18.3-18.1-17.4-17.1-16.1-15.8-15.7-15.6-15-14.7-14.6-14-13.7-13.7-13.7-12.8-12.7
2017-10-11 00Z354-29.6-24.8-22.3-20.5-19.6-18.6-18.3-17.1-15.8-15.7-15.6-15.6-15.2-14.7-14.6-14.5-14.3-14-13.6-13.2-12.1
2017-10-11 06Z360-29.6-27.1-22.1-19.3-19-18.6-18.5-18.1-17.1-16.7-16.5-16.3-16.2-15.3-15.2-15.2-14.7-14.3-14-13.3-13.2-12.3
2017-10-11 12Z366-29.6-26.5-25.6-19.5-18.8-18.1-17.8-17.5-17.3-17.1-16.3-16.1-16.1-15.5-14.8-14.5-14.5-14-13.2-13-12
2017-10-11 18Z372-29.3-27.3-24.3-21.6-19.8-19.3-18.3-17.3-17.3-16.7-16.6-16.6-16.2-14.7-14.6-14.6-14.6-14.2-13.6-13.6-12.1-11.8
2017-10-12 00Z378-26.6-26.3-24-23.1-21.6-20.8-17.8-17.6-17.1-17-16.8-16.3-16.2-15.1-15-14.7-13.8-13.3-12.7-12.7-10.7
2017-10-12 06Z384-25.8-24.8-24.3-23.5-22.1-21.3-18.8-18.3-17.3-17.1-17.1-16.1-16-15.7-15.1-15-14.8-14-13.3-13-12.5-11.5

Retour à la carte

meteociel.fr™ | © 2004 - 2017 | Forums Météo | Prévi Paris | Liens météo | Média - Meteociel | Mentions légales | Contact
En poursuivant votre navigation sur Meteociel, vous acceptez l'utilisation des cookies. Ils assurent le bon fonctionnement de nos services. [ En savoir plus ] [ OK ]